CTN6 weather

Treherne (South Norfolk Airpark) Airport
Treherne, Manitoba, Canada

Public forecast

Using degrees Celsius for public forecast. Weather courtesy of forecast.io.

METAR (pilot weather report)

Report is more than 6 hours old.

Closest report is Southport Airport, 21.1 nm (39.0 km) NE. Retrieved 2019/05/24 22:00 UTC (9 hours ago):

CYPG 242200Z 10015G21KT 2SM -RA BR OVC011 10/10 A2972 RMK SC8 LAST OBS/NEXT 271100 UTC SLP071

TAF (pilot weather forecast)

Forecast is more than 12 hours old.

Closest forecast is Southport Airport, 21.1 nm (39.0 km) NE. Retrieved 2019/05/24 18:33 UTC (12 hours ago):

TAF CYPG 241730Z 2418/2506 11010KT P6SM -RA OVC030 TEMPO 2418/2420 4SM -RA BR SCT008 OVC015 FM242000 11012G22KT 6SM -RA BR SCT008 OVC015 TEMPO 2420/2423 3SM -RA BR SCT004 BKN008 OVC015 FM242300 10012G22KT 6SM -RA BR SCT004 OVC008 TEMPO 2423/2506 3SM -RA BR OVC004 RMK NXT FCST BY 250000Z